Gillette, WY (82716)

8:34 PM MST on December 02, 2016 (GMT -0700)
McCann Heights, central Gillette | | Change Station

Elev 4590 ft 44.28 °N, 105.50 °W | Updated 17 seconds ago

Clear
Clear
23.7 °F
Feels Like 24 °F
N
2.0
Wind Variable Wind from ESE

Today
High -- | Low -- °F
--% Chance of Precip.
Yesterday
High -- | Low -- °F
Precip. -- in
Pressure 30.19 in
Visibility 10.0 miles
Clouds Clear
Windchill 24 °F
Dew Point 19 °F
Humidity 81%
Rainfall 0.00 in
Snow Depth Not available.
7:19 AM 4:23 PM
Waxing Crescent, 12% visible
METAR KGCC 030253Z AUTO 19013KT 10SM CLR M03/M06 A3008 RMK AO2 SLP222 T10331061 58014
Pressure 30.19 in
Visibility 10.0 miles
Clouds Clear
Windchill 24 °F
Dew Point 19 °F
Humidity 81%
Rainfall 0.00 in
Snow Depth Not available.
7:19 AM 4:23 PM
Waxing Crescent, 12% visible
METAR KGCC 030253Z AUTO 19013KT 10SM CLR M03/M06 A3008 RMK AO2 SLP222 T10331061 58014

10-Day Weather Forecast

Almanac

Astronomy

Dec. 02, 2016 Rise Set
Actual Time
Civil Twilight
Nautical Twilight
Astronomical Twilight
Moon
Length of Visible Light
Length of Day
Tomorrow will be .
, % of the Moon is Illuminated

Today's Extremes

State Highs State Lows

Community

WunderPhotos

Upload Photos

1,955,406 photos uploaded!

WunderBlog® & News

Nearby

Air Quality

  Air Quality AQ Index Pollutant
Not available.

Snow Depth

Station Depth Elevation

Earthquake Activity

City Distance Mag. Time & Date
Minimum magnitude displayed is 2.5.

Coastal Water Temperatures

Place Temperature

Stations

Nearby Weather Stations

Station Location Temp. Windchill Dew Point Humidity Wind Precip. Elev Updated Type
                   

Watches & Warnings

There are currently no watches in effect.